Pagina principale
METAR-TAF:

METAR-TAF

Aeroporti :

Middleton Island, Alaska, Stati Uniti

latitudine: 59-26N, longitudine: 146-18W, altezza: 27 m

Osservazione

Il bollettino è stato emesso 30 minuti fa, alle 14:47 UTC
Vento 9 kt da ovest con raffiche fino a 19 kt
Temperature 11°C
Umidità 87%
Pressione 1026 hPa
Visibilità: 16.1 km
Cielo coperto ad un'altezza di 1100 ft

METAR: PAMD 191447Z AUTO 27009G19KT 10SM OVC011 11/09 A3029 RMK AO2

Ora: 07:17 (15:17 UTC)


TAF: mancante

Osservazioni e previsioni meteorologiche di più di 4000 aeroporti (messaggi METAR e TAF).

Le stazioni disponibili sono rappresentate dai dischi gialli e rossi sulla carta.

Puntare il mouse per vedere il nome della stazione.

Clicca sopra per visualizzare le osservazioni e previsioni meteorologiche.

Per cambiare la mappa : fare clic sui pulsanti verdi con una croce nera per ingrandire, il pulsante verde con un trattino per diminuire, o sulla freccia verde per le mappe adiacenti.


METAR-TAF: